Time;durP1;ratioP1;P1;durP2;ratioP2;P2;SDS_P1;SDS_P2;PMS_P1;PMS_P2;Temp;Humidity;BMP_temperature;BMP_pressure;BME280_temperature;BME280_humidity;BME280_pressure;Samples;Min_cycle;Max_cycle;Signal;HPM_P1;HPM_P2
2022/06/19 03:00:35;;;;;;;2.55;1.75;;;30.40;39.20;;;;;;6027582;23;46427;31
2022/06/19 03:03:07;;;;;;;1.58;1.45;;;30.40;39.20;;;;;;4864503;29;46991;-63
2022/06/19 03:05:33;;;;;;;1.92;1.75;;;30.40;39.20;;;;;;4843619;29;46044;-61
2022/06/19 03:07:59;;;;;;;2.33;1.52;;;30.40;39.10;;;;;;4875816;29;46621;-62
2022/06/19 03:10:25;;;;;;;2.38;1.25;;;30.40;39.20;;;;;;4861318;29;46931;-62
2022/06/19 03:12:50;;;;;;;1.23;1.10;;;30.40;39.20;;;;;;4853543;29;45613;-63
2022/06/19 03:15:16;;;;;;;3.42;1.52;;;30.40;39.20;;;;;;4852934;29;45562;-62
2022/06/19 03:17:42;;;;;;;2.38;1.40;;;30.40;39.20;;;;;;4853329;29;45569;-61
2022/06/19 03:20:11;;;;;;;1.63;1.17;;;30.40;39.20;;;;;;4856464;29;44853;-62
2022/06/19 03:22:36;;;;;;;2.22;1.20;;;30.40;39.20;;;;;;4858308;29;47189;-61
2022/06/19 03:25:02;;;;;;;1.92;1.20;;;30.40;39.20;;;;;;4862145;29;45349;-61
2022/06/19 03:27:28;;;;;;;2.13;1.30;;;30.40;39.20;;;;;;4861550;29;45686;-62
2022/06/19 03:29:54;;;;;;;2.00;1.30;;;30.40;39.20;;;;;;4862100;29;45609;-61
2022/06/19 03:32:19;;;;;;;1.48;1.13;;;30.40;39.20;;;;;;4842049;29;47242;-61
2022/06/19 03:34:45;;;;;;;2.22;1.50;;;30.40;39.20;;;;;;4858342;29;44968;-61
2022/06/19 03:37:11;;;;;;;2.10;1.40;;;30.40;39.30;;;;;;4856987;29;45707;-63
2022/06/19 03:39:36;;;;;;;2.42;1.25;;;30.30;39.20;;;;;;4846615;29;45299;-63
2022/06/19 03:42:02;;;;;;;3.05;1.35;;;30.40;39.30;;;;;;4865294;29;45196;-62
2022/06/19 03:44:28;;;;;;;1.75;1.55;;;30.40;39.30;;;;;;4862984;29;45253;-63
2022/06/19 03:46:54;;;;;;;2.45;1.40;;;30.30;39.20;;;;;;4864913;29;45558;-61
2022/06/19 03:49:19;;;;;;;4.40;1.30;;;30.30;39.30;;;;;;4866565;29;45616;-62
2022/06/19 03:51:45;;;;;;;2.60;1.33;;;30.30;39.30;;;;;;4861070;29;45577;-61
2022/06/19 03:54:10;;;;;;;1.83;1.23;;;30.30;39.30;;;;;;4860319;29;45633;-61
2022/06/19 03:56:36;;;;;;;2.17;1.20;;;30.30;39.30;;;;;;4862001;29;45420;-63
2022/06/19 03:59:02;;;;;;;2.45;1.67;;;30.30;39.30;;;;;;4863347;29;45564;-62
2022/06/19 04:01:33;;;;;;;1.98;1.15;;;30.30;39.30;;;;;;4859065;29;45903;-62
2022/06/19 04:03:59;;;;;;;1.35;1.20;;;30.30;39.30;;;;;;4847610;29;45441;-63
2022/06/19 04:06:27;;;;;;;4.30;1.58;;;30.30;39.30;;;;;;4859180;29;45024;-62
2022/06/19 04:08:53;;;;;;;1.70;1.33;;;30.30;39.40;;;;;;4835281;29;46290;-61
2022/06/19 04:11:18;;;;;;;4.18;1.30;;;30.30;39.40;;;;;;4853426;29;46727;-64
2022/06/19 04:13:44;;;;;;;1.73;1.15;;;30.30;39.40;;;;;;4856064;29;45444;-63
2022/06/19 04:16:19;;;;;;;1.92;1.48;;;30.30;39.30;;;;;;4854023;29;45806;-64
2022/06/19 04:18:45;;;;;;;1.85;1.40;;;30.30;39.40;;;;;;4855532;29;44682;-63
2022/06/19 04:21:12;;;;;;;2.88;1.60;;;30.30;39.30;;;;;;4856451;29;47024;-63
2022/06/19 04:23:38;;;;;;;2.10;1.38;;;30.30;39.40;;;;;;4839032;29;45431;-64
2022/06/19 04:26:10;;;;;;;1.58;1.20;;;30.30;39.40;;;;;;4857597;29;45310;-64
2022/06/19 04:28:35;;;;;;;2.35;1.25;;;30.30;39.40;;;;;;4839394;29;44794;-63
2022/06/19 04:31:01;;;;;;;1.98;1.30;;;30.30;39.40;;;;;;4854834;29;47124;-63
2022/06/19 04:33:26;;;;;;;2.25;1.40;;;30.30;39.80;;;;;;4854402;29;45714;-62
2022/06/19 04:35:52;;;;;;;3.15;1.45;;;30.30;39.40;;;;;;4856161;29;45086;-63
2022/06/19 04:38:18;;;;;;;1.58;1.23;;;30.30;39.50;;;;;;4840203;29;45851;-62
2022/06/19 04:40:44;;;;;;;2.08;1.30;;;30.30;39.40;;;;;;4855336;29;45571;-63
2022/06/19 04:43:10;;;;;;;2.03;1.30;;;30.30;39.40;;;;;;4855308;29;45400;-64
2022/06/19 04:45:36;;;;;;;2.53;1.33;;;30.30;39.50;;;;;;4855585;29;45293;-63
2022/06/19 04:48:01;;;;;;;1.50;1.20;;;30.30;39.50;;;;;;4833224;29;47192;-63
2022/06/19 04:50:27;;;;;;;1.90;1.30;;;30.30;39.50;;;;;;4837242;29;46668;-62
2022/06/19 04:52:53;;;;;;;1.83;1.38;;;30.20;39.40;;;;;;4858220;29;45895;-62
2022/06/19 04:55:18;;;;;;;1.38;1.27;;;30.30;39.50;;;;;;4852417;29;45643;-62
2022/06/19 04:57:44;;;;;;;1.63;1.48;;;30.30;39.50;;;;;;4855847;29;45683;-63
2022/06/19 05:00:12;;;;;;;1.75;1.27;;;30.30;39.50;;;;;;4854753;29;46386;-63
2022/06/19 05:02:38;;;;;;;2.15;1.23;;;30.30;39.50;;;;;;4835539;29;45233;-61
2022/06/19 05:05:05;;;;;;;2.47;1.42;;;30.30;39.50;;;;;;4855073;29;45461;-63
2022/06/19 05:07:32;;;;;;;2.40;1.40;;;30.30;39.50;;;;;;4839002;29;45102;-62
2022/06/19 05:09:57;;;;;;;2.35;1.50;;;30.30;39.50;;;;;;4856338;29;46110;-63
2022/06/19 05:12:23;;;;;;;1.92;1.42;;;30.30;39.50;;;;;;4853225;29;45508;-61
2022/06/19 05:14:49;;;;;;;1.35;1.23;;;30.30;39.50;;;;;;4855608;29;45563;-63
2022/06/19 05:17:14;;;;;;;3.33;1.00;;;30.30;39.50;;;;;;4838761;29;48431;-61
2022/06/19 05:19:40;;;;;;;2.17;1.30;;;30.30;39.50;;;;;;4850496;29;46124;-62
2022/06/19 05:22:06;;;;;;;3.40;1.23;;;30.30;39.50;;;;;;4855270;29;45106;-62
2022/06/19 05:24:32;;;;;;;2.42;1.42;;;30.30;39.50;;;;;;4854867;29;45514;-62
2022/06/19 05:26:57;;;;;;;1.58;1.40;;;30.30;39.50;;;;;;4853456;29;46446;-62
2022/06/19 05:29:23;;;;;;;1.23;1.13;;;30.40;39.50;;;;;;4853865;29;45936;-63
2022/06/19 05:31:49;;;;;;;1.45;1.35;;;30.40;39.40;;;;;;4854954;29;45568;-62
2022/06/19 05:34:14;;;;;;;1.30;1.20;;;30.40;39.30;;;;;;4855905;29;45595;-62
2022/06/19 05:36:40;;;;;;;2.15;1.20;;;30.50;39.30;;;;;;4852812;29;45436;-62
2022/06/19 05:39:06;;;;;;;2.30;1.50;;;30.50;39.20;;;;;;4861179;29;46143;-63
2022/06/19 05:41:32;;;;;;;1.83;1.50;;;30.60;39.20;;;;;;4861112;29;44995;-59
2022/06/19 05:43:57;;;;;;;2.15;1.42;;;30.60;39.30;;;;;;4861870;29;45238;-62
2022/06/19 05:46:23;;;;;;;1.20;1.10;;;30.60;39.20;;;;;;4861791;29;45149;-62
2022/06/19 05:48:49;;;;;;;2.28;1.20;;;30.60;39.10;;;;;;4860806;29;45891;-62
2022/06/19 05:51:16;;;;;;;2.72;1.33;;;30.60;39.10;;;;;;4861804;29;47837;-62
2022/06/19 05:53:44;;;;;;;1.40;1.20;;;30.60;39.10;;;;;;4861192;29;45341;-62
2022/06/19 05:56:10;;;;;;;1.55;1.40;;;30.60;39.10;;;;;;4861732;29;44805;-60
2022/06/19 05:58:35;;;;;;;1.60;1.35;;;30.60;39.10;;;;;;4864216;29;46355;-62
2022/06/19 06:01:02;;;;;;;3.30;1.50;;;30.60;39.00;;;;;;4846842;29;44752;-63
2022/06/19 06:03:27;;;;;;;2.38;1.38;;;30.60;39.10;;;;;;4862905;29;45871;-62
2022/06/19 06:05:53;;;;;;;2.65;1.45;;;30.60;39.10;;;;;;4865696;29;45130;-62
2022/06/19 06:08:19;;;;;;;1.30;1.15;;;30.60;39.10;;;;;;4864219;29;46033;-63
2022/06/19 06:10:45;;;;;;;1.35;1.17;;;30.60;39.10;;;;;;4862755;29;44641;-60
2022/06/19 06:13:11;;;;;;;2.00;1.58;;;30.60;39.10;;;;;;4866314;29;45526;-63
2022/06/19 06:15:36;;;;;;;1.33;1.17;;;30.60;39.00;;;;;;4844273;29;44745;-63
2022/06/19 06:18:02;;;;;;;1.38;1.25;;;30.60;39.00;;;;;;4861254;29;45408;-62
2022/06/19 06:20:28;;;;;;;1.80;1.42;;;30.60;39.00;;;;;;4861054;29;45280;-60
2022/06/19 06:22:54;;;;;;;2.28;1.70;;;30.70;39.00;;;;;;4863444;29;45180;-62
2022/06/19 06:25:19;;;;;;;2.13;1.48;;;30.70;38.90;;;;;;4862120;29;45880;-63
2022/06/19 06:27:45;;;;;;;1.63;1.48;;;30.70;38.80;;;;;;4847243;29;47113;-61
2022/06/19 06:30:11;;;;;;;2.03;1.48;;;30.80;38.80;;;;;;4867672;29;44705;-62
2022/06/19 06:32:37;;;;;;;1.50;1.40;;;30.80;38.70;;;;;;4872812;29;45210;-62
2022/06/19 06:35:06;;;;;;;2.85;1.70;;;30.90;38.60;;;;;;4872884;29;45331;-64
2022/06/19 06:37:32;;;;;;;2.05;1.45;;;31.00;38.60;;;;;;4854849;29;45334;-63
2022/06/19 06:39:57;;;;;;;2.53;1.52;;;31.00;38.50;;;;;;4865438;29;44956;-62
2022/06/19 06:42:23;;;;;;;2.60;1.50;;;31.00;38.50;;;;;;4860873;29;45569;-60
2022/06/19 06:44:48;;;;;;;2.22;1.63;;;31.00;38.40;;;;;;4861945;29;45980;-63
2022/06/19 06:47:14;;;;;;;2.72;1.75;;;31.10;38.40;;;;;;4860887;29;45894;-64
2022/06/19 06:49:40;;;;;;;1.70;1.60;;;31.10;38.30;;;;;;4851045;29;45307;-64
2022/06/19 06:52:08;;;;;;;1.60;1.50;;;31.20;38.40;;;;;;4866338;29;45098;-61
2022/06/19 06:54:38;;;;;;;2.28;1.40;;;31.20;38.30;;;;;;4864398;29;44962;-62
2022/06/19 06:57:07;;;;;;;1.95;1.50;;;31.20;38.40;;;;;;4866269;29;45303;-62
2022/06/19 06:59:33;;;;;;;2.70;1.38;;;31.20;38.30;;;;;;4866553;29;45314;-63
2022/06/19 07:01:58;;;;;;;2.22;1.80;;;31.20;38.30;;;;;;4863739;29;45343;-63
2022/06/19 07:04:24;;;;;;;2.33;1.80;;;31.20;38.30;;;;;;4865070;29;45516;-60
2022/06/19 07:06:49;;;;;;;2.13;1.50;;;31.20;38.30;;;;;;4866807;29;47416;-61
2022/06/19 07:09:15;;;;;;;2.35;1.35;;;31.20;38.30;;;;;;4867021;29;45178;-62
2022/06/19 07:11:42;;;;;;;1.63;1.25;;;31.20;38.30;;;;;;4871563;29;44794;-62
2022/06/19 07:14:07;;;;;;;1.77;1.63;;;31.20;38.30;;;;;;4869355;29;44980;-62
2022/06/19 07:16:33;;;;;;;4.88;1.80;;;31.20;38.30;;;;;;4866240;29;46299;-61
2022/06/19 07:18:59;;;;;;;1.98;1.60;;;31.20;38.20;;;;;;4867041;29;45773;-62
2022/06/19 07:21:24;;;;;;;2.00;1.70;;;31.30;38.20;;;;;;4866677;29;45302;-62
2022/06/19 07:23:50;;;;;;;3.30;1.55;;;31.30;38.80;;;;;;4871859;29;45208;-62
2022/06/19 07:26:16;;;;;;;1.95;1.75;;;31.30;38.20;;;;;;4866572;29;45534;-62
2022/06/19 07:28:42;;;;;;;4.57;1.95;;;31.30;38.20;;;;;;4866342;29;45445;-61
2022/06/19 07:31:08;;;;;;;2.92;1.88;;;31.40;38.20;;;;;;4850074;29;45493;-62
2022/06/19 07:33:34;;;;;;;1.80;1.58;;;31.30;38.20;;;;;;4847560;29;45875;-62
2022/06/19 07:36:00;;;;;;;2.38;1.70;;;31.30;38.20;;;;;;4862474;29;45296;-62
2022/06/19 07:38:26;;;;;;;3.42;1.90;;;31.30;38.10;;;;;;4867803;29;45943;-61
2022/06/19 07:40:51;;;;;;;2.03;1.42;;;31.30;38.20;;;;;;4865470;29;45051;-62
2022/06/19 07:43:17;;;;;;;2.15;1.38;;;31.40;38.20;;;;;;4865926;29;45275;-61
2022/06/19 07:45:42;;;;;;;1.90;1.77;;;31.40;38.20;;;;;;4848899;29;45295;-59
2022/06/19 07:50:55;;;;;;;2.53;2.00;;;31.40;38.10;;;;;;4867446;29;45199;-61
2022/06/19 07:53:21;;;;;;;2.88;1.80;;;31.40;38.20;;;;;;4869002;29;45718;-60
2022/06/19 07:55:47;;;;;;;2.85;1.70;;;31.40;38.10;;;;;;4865801;29;46109;-59
2022/06/19 07:58:12;;;;;;;2.40;1.90;;;31.40;38.10;;;;;;4861326;29;45276;-59
2022/06/19 08:00:38;;;;;;;1.98;1.55;;;31.40;38.00;;;;;;4865330;29;45407;-62
2022/06/19 08:03:04;;;;;;;3.08;1.90;;;31.50;38.10;;;;;;4866398;29;46543;-60
2022/06/19 08:05:30;;;;;;;3.67;2.00;;;31.50;38.10;;;;;;4862184;29;46979;-61
2022/06/19 08:07:57;;;;;;;2.10;1.90;;;31.50;38.00;;;;;;4860238;29;45148;-61
2022/06/19 08:10:28;;;;;;;3.25;1.70;;;31.50;38.00;;;;;;4864188;29;45639;-59
2022/06/19 08:12:54;;;;;;;2.45;1.42;;;31.50;38.00;;;;;;4867156;29;45150;-61
2022/06/19 08:15:20;;;;;;;3.35;1.77;;;31.60;38.10;;;;;;4863417;29;46377;-63
2022/06/19 08:17:46;;;;;;;3.08;1.60;;;31.60;38.00;;;;;;4846851;29;45488;-61
2022/06/19 08:20:12;;;;;;;3.22;1.90;;;31.60;38.00;;;;;;4862997;29;45399;-61
2022/06/19 08:22:41;;;;;;;2.42;1.80;;;31.60;37.90;;;;;;4865604;29;45092;-60
2022/06/19 08:25:07;;;;;;;5.30;1.80;;;31.60;37.90;;;;;;4866063;29;45267;-61
2022/06/19 08:27:36;;;;;;;3.25;1.80;;;31.60;38.00;;;;;;4864695;29;45589;-61
2022/06/19 08:30:07;;;;;;;2.25;1.90;;;31.70;37.90;;;;;;4866421;29;44871;-62
2022/06/19 08:32:32;;;;;;;2.67;1.70;;;31.70;38.00;;;;;;4826659;29;45387;-62
2022/06/19 08:34:58;;;;;;;3.97;2.00;;;31.70;37.90;;;;;;4865560;29;45327;-63
2022/06/19 08:37:24;;;;;;;3.33;1.95;;;31.70;37.90;;;;;;4860560;29;45884;-61
2022/06/19 08:39:49;;;;;;;5.25;1.77;;;31.70;37.80;;;;;;4865940;29;45256;-62
2022/06/19 08:42:22;;;;;;;3.58;2.30;;;31.70;37.80;;;;;;4844479;29;44950;-61
2022/06/19 08:45:03;;;;;;;2.90;1.70;;;31.80;37.80;;;;;;4849596;29;45738;-62
2022/06/19 08:47:47;;;;;;;1.88;1.77;;;31.80;37.70;;;;;;4865600;29;44692;-62
2022/06/19 08:50:33;;;;;;;2.25;1.80;;;31.80;37.80;;;;;;4863454;29;47876;-62
2022/06/19 08:53:24;;;;;;;3.10;1.90;;;31.80;37.80;;;;;;4863072;29;45455;-62
2022/06/19 08:56:02;;;;;;;3.15;1.83;;;31.80;37.90;;;;;;4849760;29;45299;-61
2022/06/19 08:58:31;;;;;;;2.42;1.90;;;31.80;37.90;;;;;;4860211;29;45229;-60
2022/06/19 09:01:15;;;;;;;2.35;1.83;;;31.80;37.90;;;;;;4844884;29;45338;-62
2022/06/19 09:06:40;;;;;;;3.90;2.00;;;31.80;37.80;;;;;;4836554;29;46207;-62
2022/06/19 09:09:27;;;;;;;2.33;1.65;;;31.80;37.80;;;;;;4863306;29;45215;-61
2022/06/19 09:12:08;;;;;;;2.25;1.75;;;31.90;37.90;;;;;;4862320;29;45498;-62
2022/06/19 09:14:37;;;;;;;2.63;2.10;;;31.90;37.90;;;;;;4867257;29;44727;-63
2022/06/19 09:17:11;;;;;;;2.28;2.00;;;31.90;37.90;;;;;;4848331;29;46010;-61
2022/06/19 09:19:47;;;;;;;5.07;2.00;;;31.90;37.80;;;;;;4865817;29;45233;-61
2022/06/19 09:22:36;;;;;;;2.92;1.95;;;31.90;37.80;;;;;;4865013;29;45260;-63
2022/06/19 09:25:13;;;;;;;4.78;2.03;;;31.90;37.70;;;;;;4842893;29;44839;-60
2022/06/19 09:27:47;;;;;;;4.53;2.10;;;31.90;37.70;;;;;;4857802;29;45371;-59
2022/06/19 09:30:20;;;;;;;2.67;1.77;;;32.00;37.80;;;;;;4848823;29;44716;-61
2022/06/19 09:32:52;;;;;;;5.82;2.30;;;32.00;37.70;;;;;;4862203;29;45346;-62
2022/06/19 09:35:32;;;;;;;3.22;2.35;;;32.00;37.60;;;;;;4860169;29;45607;-60
2022/06/19 09:37:59;;;;;;;2.58;1.83;;;32.10;37.60;;;;;;4833937;29;47129;-60
2022/06/19 09:40:29;;;;;;;3.70;2.25;;;32.10;37.60;;;;;;4861544;29;45512;-62
2022/06/19 09:42:57;;;;;;;2.90;2.15;;;32.10;37.60;;;;;;4865264;29;45417;-61
2022/06/19 09:46:00;;;;;;;5.20;2.33;;;32.10;37.60;;;;;;4863810;29;45654;-63
2022/06/19 09:48:31;;;;;;;2.17;1.98;;;32.10;37.50;;;;;;4818320;29;45441;-62
2022/06/19 09:51:07;;;;;;;4.00;2.00;;;32.10;37.50;;;;;;4862761;29;46104;-61
2022/06/19 09:53:54;;;;;;;4.20;2.03;;;32.10;37.50;;;;;;4862639;29;45625;-62
2022/06/19 09:56:25;;;;;;;2.08;1.83;;;32.10;37.40;;;;;;4833340;29;45609;-63
2022/06/19 09:59:12;;;;;;;5.85;2.17;;;32.10;37.50;;;;;;4864560;29;46968;-62
2022/06/19 10:01:38;;;;;;;5.38;2.45;;;32.20;37.50;;;;;;4862944;29;45451;-61
2022/06/19 10:04:05;;;;;;;2.97;2.20;;;32.20;37.50;;;;;;4845607;29;45282;-61
2022/06/19 10:06:38;;;;;;;5.40;2.67;;;32.20;37.50;;;;;;4859876;29;45019;-63
2022/06/19 10:09:31;;;;;;;3.88;2.28;;;32.20;37.50;;;;;;4861649;29;45985;-61
2022/06/19 10:12:00;;;;;;;3.40;2.45;;;32.20;37.40;;;;;;4847306;29;45155;-63
2022/06/19 10:14:42;;;;;;;2.80;2.13;;;32.20;37.50;;;;;;4846306;29;45749;-62
2022/06/19 10:17:25;;;;;;;5.25;2.38;;;32.20;37.40;;;;;;4858302;29;45289;-62
2022/06/19 10:20:02;;;;;;;4.23;2.20;;;32.20;37.40;;;;;;4861351;29;46081;-63
2022/06/19 10:22:34;;;;;;;4.68;2.25;;;32.20;37.40;;;;;;4845124;29;45538;-62
2022/06/19 10:25:17;;;;;;;4.18;2.50;;;32.20;37.50;;;;;;4857892;29;45303;-62
2022/06/19 10:28:04;;;;;;;4.88;2.90;;;32.20;37.50;;;;;;4863066;29;45494;-61
2022/06/19 10:30:30;;;;;;;3.20;2.70;;;32.20;37.50;;;;;;4863936;29;47042;-62
2022/06/19 10:33:11;;;;;;;3.60;2.60;;;32.20;37.50;;;;;;4863885;29;45832;-61
2022/06/19 10:35:44;;;;;;;3.45;2.05;;;32.30;37.50;;;;;;4853913;29;45486;-64
2022/06/19 10:38:28;;;;;;;;;;;32.30;37.40;;;;;;4858334;29;45384;-62
2022/06/19 10:42:00;;;;;;;3.38;2.20;;;32.20;37.30;;;;;;4864918;29;45345;-61
2022/06/19 10:44:38;;;;;;;3.90;2.45;;;32.30;37.30;;;;;;4862824;29;45044;-61
2022/06/19 10:47:15;;;;;;;;;;;32.30;37.20;;;;;;4862811;29;45335;-62
2022/06/19 10:49:55;;;;;;;4.80;2.30;;;32.30;37.30;;;;;;4865654;29;44761;-61
2022/06/19 10:52:25;;;;;;;3.20;2.63;;;32.30;37.40;;;;;;4847574;29;45553;-61
2022/06/19 10:55:03;;;;;;;6.85;2.72;;;32.30;37.40;;;;;;4865350;29;44678;-62
2022/06/19 10:57:44;;;;;;;3.35;2.33;;;32.40;37.30;;;;;;4864624;29;44827;-63
2022/06/19 11:00:10;;;;;;;5.07;2.63;;;32.30;37.30;;;;;;4864084;29;45437;-64
2022/06/19 11:05:48;;;;;;;4.45;2.80;;;32.40;37.20;;;;;;4859816;29;45241;-61
2022/06/19 11:08:14;;;;;;;7.00;2.55;;;32.40;37.40;;;;;;4858607;29;45607;-61
2022/06/19 11:10:45;;;;;;;5.88;2.65;;;32.30;37.20;;;;;;4843962;29;45745;-62
2022/06/19 11:13:10;;;;;;;4.75;2.85;;;32.30;37.20;;;;;;4861830;29;46163;-63
2022/06/19 11:15:40;;;;;;;5.13;2.90;;;32.40;37.30;;;;;;4862330;29;44792;-62
2022/06/19 11:18:26;;;;;;;5.25;3.13;;;32.40;37.30;;;;;;4862084;29;44693;-61
2022/06/19 11:21:03;;;;;;;4.38;2.85;;;32.40;37.00;;;;;;4862299;29;45203;-63
2022/06/19 11:23:32;;;;;;;7.75;2.95;;;32.40;37.10;;;;;;4840532;29;45950;-64
2022/06/19 11:26:11;;;;;;;3.85;2.78;;;32.40;37.20;;;;;;4847005;29;45637;-63
2022/06/19 11:28:40;;;;;;;7.63;2.70;;;32.40;37.00;;;;;;4848054;29;45332;-61
2022/06/19 11:31:15;;;;;;;4.03;3.08;;;32.40;37.60;;;;;;4852523;29;45123;-63
2022/06/19 11:33:41;;;;;;;5.47;2.80;;;32.40;37.00;;;;;;4851346;29;46820;-62
2022/06/19 11:36:08;;;;;;;5.30;2.95;;;32.40;37.00;;;;;;4851688;29;48445;-63
2022/06/19 11:38:38;;;;;;;5.22;2.97;;;32.40;37.00;;;;;;4833765;29;45635;-62
2022/06/19 11:41:25;;;;;;;8.43;2.95;;;32.50;37.00;;;;;;4850743;29;45604;-62
2022/06/19 11:44:19;;;;;;;5.53;3.13;;;32.50;36.70;;;;;;4853647;29;46138;-63
2022/06/19 11:46:53;;;;;;;5.28;2.80;;;32.50;37.20;;;;;;4851827;29;45108;-61
2022/06/19 11:49:36;;;;;;;6.50;3.28;;;32.50;36.90;;;;;;4838353;29;45391;-60
2022/06/19 11:52:03;;;;;;;;;;;32.50;36.60;;;;;;4837150;29;48304;-61
2022/06/19 11:54:35;;;;;;;4.63;2.92;;;32.50;36.60;;;;;;4852544;29;45363;-62
2022/06/19 11:57:00;;;;;;;8.67;3.10;;;32.50;36.80;;;;;;4855286;29;45372;-62
2022/06/19 11:59:32;;;;;;;3.58;2.70;;;32.50;36.70;;;;;;4852841;29;45497;-62
2022/06/19 12:01:58;;;;;;;6.85;3.17;;;32.50;36.60;;;;;;4852139;29;45910;-62
2022/06/19 12:04:26;;;;;;;5.90;3.03;;;32.60;36.70;;;;;;4853368;29;45342;-62
2022/06/19 12:07:03;;;;;;;5.30;3.00;;;32.60;36.70;;;;;;4853936;29;46276;-63
2022/06/19 12:09:31;;;;;;;6.25;3.40;;;32.60;36.60;;;;;;4821931;29;44677;-62
2022/06/19 12:12:01;;;;;;;6.20;2.80;;;32.60;36.60;;;;;;4849817;29;45543;-62
2022/06/19 12:14:29;;;;;;;4.70;2.97;;;32.60;36.60;;;;;;4851769;29;47174;-63
2022/06/19 12:17:32;;;;;;;8.18;3.28;;;32.60;36.60;;;;;;4853962;29;45392;-63
2022/06/19 12:20:05;;;;;;;8.80;2.88;;;32.60;36.30;;;;;;4852785;29;45416;-62
2022/06/19 12:22:46;;;;;;;4.13;2.83;;;32.60;36.40;;;;;;4835644;29;45310;-62
2022/06/19 12:25:33;;;;;;;4.72;3.28;;;32.70;36.30;;;;;;4836468;29;46036;-64
2022/06/19 12:28:11;;;;;;;6.07;3.05;;;32.60;36.30;;;;;;4854281;29;45351;-62
2022/06/19 12:31:06;;;;;;;5.20;3.33;;;32.70;36.30;;;;;;4853830;29;46007;-62
2022/06/19 12:33:53;;;;;;;4.97;3.13;;;32.70;36.20;;;;;;4851288;29;46711;-62
2022/06/19 12:36:25;;;;;;;8.35;3.42;;;32.70;36.20;;;;;;4848838;29;45354;-60
2022/06/19 12:38:50;;;;;;;6.75;3.17;;;32.70;36.30;;;;;;4855764;29;45844;-62
2022/06/19 12:41:55;;;;;;;5.25;3.20;;;32.70;36.30;;;;;;4847801;29;45904;-63
2022/06/19 12:44:20;;;;;;;7.57;3.55;;;32.70;36.30;;;;;;4809148;29;45572;-61
2022/06/19 12:46:57;;;;;;;5.57;3.58;;;32.70;36.30;;;;;;4809523;29;45735;-61
2022/06/19 12:49:59;;;;;;;6.80;3.83;;;32.70;36.30;;;;;;4820779;29;45287;-63
2022/06/19 12:52:54;;;;;;;4.80;3.30;;;32.70;36.10;;;;;;4851749;29;45269;-61
2022/06/19 12:55:49;;;;;;;5.38;3.45;;;32.70;36.00;;;;;;4827896;29;45302;-63
2022/06/19 12:58:24;;;;;;;5.43;3.40;;;32.70;36.10;;;;;;4840697;29;45356;-63
2022/06/19 13:00:58;;;;;;;7.15;3.70;;;32.70;36.10;;;;;;4851168;29;45077;-63
2022/06/19 13:03:51;;;;;;;5.95;3.83;;;32.70;36.20;;;;;;4854215;29;45724;-62
2022/06/19 13:06:36;;;;;;;5.72;3.83;;;32.70;36.00;;;;;;4851668;29;45670;-61
2022/06/19 13:09:30;;;;;;;7.00;3.70;;;32.70;36.10;;;;;;4853882;29;46120;-62
2022/06/19 13:11:56;;;;;;;4.38;3.25;;;32.80;36.20;;;;;;4814157;29;45742;-63
2022/06/19 13:14:49;;;;;;;8.52;3.60;;;32.70;36.20;;;;;;4851177;29;46076;-63
2022/06/19 13:17:27;;;;;;;5.40;3.80;;;32.80;36.10;;;;;;4852116;29;45670;-61
2022/06/19 13:19:58;;;;;;;7.40;3.55;;;32.80;36.10;;;;;;4855957;29;46146;-63
2022/06/19 13:23:14;;;;;;;7.38;3.78;;;32.80;36.80;;;;;;4849818;29;45684;-65
2022/06/19 13:25:54;;;;;;;6.93;3.55;;;32.80;36.00;;;;;;4836041;29;45430;-62
2022/06/19 13:28:36;;;;;;;4.70;3.33;;;32.80;36.00;;;;;;4851113;29;45354;-63
2022/06/19 13:31:23;;;;;;;5.07;3.60;;;32.80;36.10;;;;;;4851341;29;46326;-64
2022/06/19 13:34:26;;;;;;;4.93;3.65;;;32.80;36.00;;;;;;4860142;29;45166;-63
2022/06/19 13:37:00;;;;;;;6.70;3.35;;;32.80;36.00;;;;;;4858834;29;45643;-63
2022/06/19 13:39:41;;;;;;;9.20;3.90;;;32.80;36.10;;;;;;4861608;29;45730;-62
2022/06/19 13:42:34;;;;;;;6.20;3.70;;;32.80;36.00;;;;;;4843231;29;46370;-61
2022/06/19 13:45:15;;;;;;;10.40;4.00;;;32.90;36.00;;;;;;4862761;29;45250;-59
2022/06/19 13:47:57;;;;;;;5.85;3.88;;;32.90;36.00;;;;;;4843033;29;45334;-63
2022/06/19 13:50:37;;;;;;;8.55;4.05;;;32.80;36.10;;;;;;4843148;29;44741;-62
2022/06/19 13:53:19;;;;;;;7.63;3.90;;;32.90;36.00;;;;;;4858622;29;46262;-64
2022/06/19 13:56:16;;;;;;;5.40;3.65;;;32.90;36.00;;;;;;4839947;29;45449;-63
2022/06/19 13:59:22;;;;;;;7.70;3.80;;;32.90;36.00;;;;;;4864920;29;45629;-61
2022/06/19 14:02:16;;;;;;;6.30;3.58;;;32.90;36.00;;;;;;4865581;29;45228;-60
2022/06/19 14:05:00;;;;;;;5.20;3.40;;;33.00;36.00;;;;;;4858329;29;46239;-63
2022/06/19 14:07:53;;;;;;;8.95;3.70;;;32.90;36.10;;;;;;4843938;29;45402;-62
2022/06/19 14:10:57;;;;;;;5.85;3.38;;;33.00;36.00;;;;;;4858826;29;45197;-64
2022/06/19 14:13:48;;;;;;;6.68;3.75;;;32.90;36.00;;;;;;4862289;29;45431;-63
2022/06/19 14:16:26;;;;;;;5.53;3.63;;;33.00;36.00;;;;;;4859914;29;45885;-62
2022/06/19 14:19:21;;;;;;;7.18;3.78;;;33.00;36.00;;;;;;4859846;29;48106;-62
2022/06/19 14:22:12;;;;;;;7.75;3.92;;;33.00;35.90;;;;;;4858285;29;45718;-64
2022/06/19 14:25:05;;;;;;;7.00;3.70;;;33.00;35.90;;;;;;4861531;29;45996;-63
2022/06/19 14:27:49;;;;;;;;;;;33.00;35.90;;;;;;4832710;29;46868;-63
2022/06/19 14:30:17;;;;;;;7.32;3.45;;;33.00;35.90;;;;;;4864187;29;45267;-63
2022/06/19 14:32:47;;;;;;;7.05;4.80;;;33.00;36.10;;;;;;4844444;29;45486;-63
2022/06/19 14:35:18;;;;;;;8.77;3.80;;;33.00;36.00;;;;;;4860779;29;44708;-63
2022/06/19 14:37:54;;;;;;;8.77;4.10;;;33.00;36.00;;;;;;4860689;29;47070;-63
2022/06/19 14:40:23;;;;;;;6.25;3.90;;;33.10;35.90;;;;;;4855709;29;45434;-62
2022/06/19 14:42:59;;;;;;;4.97;3.83;;;33.10;36.10;;;;;;4858528;29;44670;-63
2022/06/19 14:45:35;;;;;;;6.05;3.53;;;33.10;36.60;;;;;;4857848;29;45427;-63
2022/06/19 14:48:22;;;;;;;6.10;3.75;;;33.10;35.90;;;;;;4852236;29;45563;-62
2022/06/19 14:51:12;;;;;;;5.85;3.88;;;33.10;35.90;;;;;;4862436;29;45425;-61
2022/06/19 14:53:58;;;;;;;8.02;4.40;;;33.10;35.90;;;;;;4848887;29;45213;-63
2022/06/19 14:56:52;;;;;;;6.20;3.80;;;33.10;35.90;;;;;;4841930;29;45361;-63
2022/06/19 14:59:19;;;;;;;5.20;3.72;;;33.10;35.80;;;;;;4842148;29;46021;-63
2022/06/19 15:01:47;;;;;;;7.13;4.32;;;33.10;35.90;;;;;;4857714;29;45593;-63
2022/06/19 15:04:15;;;;;;;6.60;3.85;;;33.10;36.00;;;;;;4843802;29;44721;-62
2022/06/19 15:06:43;;;;;;;7.63;4.28;;;33.10;35.90;;;;;;4846155;29;45220;-63
2022/06/19 15:09:42;;;;;;;6.63;4.10;;;33.10;35.90;;;;;;4842414;29;45884;-63
2022/06/19 15:12:26;;;;;;;5.88;3.97;;;33.20;35.80;;;;;;4859433;29;45307;-61
2022/06/19 15:14:57;;;;;;;10.05;4.43;;;33.10;35.80;;;;;;4844642;29;45226;-60
2022/06/19 15:17:38;;;;;;;5.50;4.20;;;33.10;35.80;;;;;;4844640;29;45319;-62
2022/06/19 15:20:25;;;;;;;5.47;3.58;;;33.10;35.70;;;;;;4852332;29;45978;-61
2022/06/19 15:23:18;;;;;;;7.35;3.90;;;33.10;35.80;;;;;;4863293;29;45359;-63
2022/06/19 15:25:47;;;;;;;13.60;4.60;;;33.10;35.70;;;;;;4860634;29;44827;-60
2022/06/19 15:28:34;;;;;;;6.40;3.65;;;33.10;35.80;;;;;;4863895;29;45132;-61
2022/06/19 15:31:03;;;;;;;7.60;3.85;;;33.20;35.90;;;;;;4859814;29;46097;-61
2022/06/19 15:33:42;;;;;;;8.50;4.45;;;33.20;35.80;;;;;;4846042;29;45677;-62
2022/06/19 15:36:08;;;;;;;10.05;4.30;;;33.20;35.80;;;;;;4862849;29;45564;-60
2022/06/19 15:38:37;;;;;;;6.45;4.50;;;33.20;35.80;;;;;;4845113;29;45305;-63
2022/06/19 15:41:45;;;;;;;7.30;3.95;;;33.20;35.80;;;;;;4862591;29;45889;-62
2022/06/19 15:44:17;;;;;;;7.20;4.45;;;33.20;35.70;;;;;;4848657;29;45893;-64
2022/06/19 15:47:02;;;;;;;8.15;4.40;;;33.20;35.80;;;;;;4860415;29;45840;-64
2022/06/19 15:49:28;;;;;;;6.40;4.10;;;33.20;35.60;;;;;;4869451;29;45352;-62
2022/06/19 15:52:00;;;;;;;5.13;3.80;;;33.20;35.80;;;;;;4862355;29;45787;-63
2022/06/19 15:54:25;;;;;;;7.33;4.70;;;33.30;35.80;;;;;;4866622;29;45691;-62
2022/06/19 15:56:51;;;;;;;10.73;4.47;;;33.20;35.80;;;;;;4864097;29;45133;-63
2022/06/19 15:59:26;;;;;;;6.25;4.70;;;33.30;35.80;;;;;;4848866;29;45479;-62
2022/06/19 16:01:56;;;;;;;8.10;4.10;;;33.30;35.70;;;;;;4840617;29;46424;-65
2022/06/19 16:04:36;;;;;;;5.80;4.07;;;33.30;35.80;;;;;;4833296;29;45105;-63
2022/06/19 16:07:10;;;;;;;5.57;3.83;;;33.30;35.70;;;;;;4847893;29;45404;-64
2022/06/19 16:09:53;;;;;;;6.22;4.20;;;33.30;35.70;;;;;;4855118;29;45524;-63
2022/06/19 16:12:37;;;;;;;7.50;4.20;;;33.30;35.70;;;;;;4856318;29;46112;-63
2022/06/19 16:15:20;;;;;;;6.07;4.32;;;33.30;35.80;;;;;;4863562;29;45271;-62
2022/06/19 16:17:52;;;;;;;6.85;4.35;;;33.30;35.70;;;;;;4859048;29;45652;-63
2022/06/19 16:20:24;;;;;;;9.77;4.25;;;33.30;35.80;;;;;;4858782;29;45291;-64
2022/06/19 16:22:50;;;;;;;;;;;33.30;35.80;;;;;;4856570;29;45232;-62
2022/06/19 16:25:37;;;;;;;4.70;4.00;;;33.30;35.70;;;;;;4857810;29;44826;-63
2022/06/19 16:28:11;;;;;;;6.13;4.20;;;33.30;35.70;;;;;;4844756;29;45203;-61